createdAt,value
2023-03-25T00:01:14.041Z,1.90
2023-03-25T00:03:46.802Z,1.53
2023-03-25T00:06:13.987Z,1.90
2023-03-25T00:08:40.557Z,1.90
2023-03-25T00:11:08.406Z,1.57
2023-03-25T00:13:35.072Z,2.27
2023-03-25T00:16:02.381Z,1.70
2023-03-25T00:18:33.652Z,1.60
2023-03-25T00:21:02.351Z,1.80
2023-03-25T00:23:29.667Z,1.63
2023-03-25T00:26:00.554Z,1.60
2023-03-25T00:28:34.912Z,1.70
2023-03-25T00:31:03.792Z,1.77
2023-03-25T00:33:31.767Z,1.90
2023-03-25T00:36:01.384Z,1.90
2023-03-25T00:38:38.191Z,1.80
2023-03-25T00:41:25.799Z,1.90
2023-03-25T00:43:53.160Z,1.90
2023-03-25T00:46:19.757Z,2.13
2023-03-25T00:48:46.349Z,2.03
2023-03-25T00:51:14.805Z,1.90
2023-03-25T00:53:41.417Z,2.70
2023-03-25T00:56:07.945Z,2.40
2023-03-25T00:58:34.485Z,2.40
2023-03-25T01:01:01.034Z,2.80
2023-03-25T01:03:29.180Z,2.70
2023-03-25T01:05:57.934Z,3.23
2023-03-25T01:08:25.286Z,4.47
2023-03-25T01:10:54.003Z,4.17
2023-03-25T01:13:20.789Z,4.90
2023-03-25T01:15:47.602Z,4.97
2023-03-25T01:18:14.348Z,4.67
2023-03-25T01:20:40.900Z,4.33
2023-03-25T01:23:09.302Z,4.87
2023-03-25T01:25:36.741Z,4.57
2023-03-25T01:28:03.802Z,4.80
2023-03-25T01:30:30.852Z,4.53
2023-03-25T01:32:57.420Z,5.17
2023-03-25T01:35:23.955Z,4.63
2023-03-25T01:37:50.461Z,4.83
2023-03-25T01:40:18.638Z,5.57
2023-03-25T01:42:46.452Z,5.83
2023-03-25T01:45:16.718Z,6.67
2023-03-25T01:47:43.706Z,7.33
2023-03-25T01:50:14.896Z,7.23
2023-03-25T01:52:46.053Z,6.57
2023-03-25T01:55:12.620Z,6.97
2023-03-25T01:57:43.854Z,7.67
2023-03-25T02:00:11.049Z,6.30
2023-03-25T02:02:40.234Z,7.67
2023-03-25T02:05:18.423Z,6.93
2023-03-25T02:07:46.879Z,7.37
2023-03-25T02:10:14.116Z,6.80
2023-03-25T02:12:41.516Z,7.40
2023-03-25T02:15:09.078Z,6.17
2023-03-25T02:17:47.738Z,6.37
2023-03-25T02:20:33.137Z,5.87
2023-03-25T02:23:02.789Z,5.50
2023-03-25T02:25:39.821Z,5.37
2023-03-25T02:28:29.792Z,4.57
2023-03-25T02:31:25.547Z,4.53
2023-03-25T02:33:52.148Z,4.30
2023-03-25T02:36:18.670Z,4.47
2023-03-25T02:38:45.332Z,4.07
2023-03-25T02:41:16.216Z,4.63
2023-03-25T02:43:42.853Z,4.33
2023-03-25T02:46:12.880Z,4.20
2023-03-25T02:48:59.668Z,4.83
2023-03-25T02:51:31.814Z,4.20
2023-03-25T02:54:02.096Z,4.87
2023-03-25T02:56:33.015Z,4.57
2023-03-25T02:59:00.297Z,4.50
2023-03-25T03:01:27.053Z,3.93
2023-03-25T03:03:54.461Z,4.00
2023-03-25T03:06:21.368Z,4.03
2023-03-25T03:08:51.049Z,4.10
2023-03-25T03:11:30.358Z,4.37
2023-03-25T03:13:57.850Z,4.83
2023-03-25T03:16:24.984Z,4.83
2023-03-25T03:18:58.643Z,4.47
2023-03-25T03:21:31.150Z,4.90
2023-03-25T03:24:00.017Z,4.30
2023-03-25T03:26:44.255Z,4.30
2023-03-25T03:29:19.957Z,3.93
2023-03-25T03:32:05.834Z,3.70
2023-03-25T03:34:52.891Z,3.47
2023-03-25T03:37:22.409Z,4.17
2023-03-25T03:39:50.537Z,3.00
2023-03-25T03:42:21.563Z,3.47
2023-03-25T03:44:50.762Z,3.77
2023-03-25T03:47:29.380Z,4.00
2023-03-25T03:50:00.818Z,3.60
2023-03-25T03:52:37.754Z,3.93
2023-03-25T03:55:16.914Z,3.70
2023-03-25T03:57:46.560Z,3.90
2023-03-25T04:00:18.086Z,3.97
2023-03-25T04:02:44.636Z,3.60
2023-03-25T04:05:16.241Z,3.40
2023-03-25T04:07:42.791Z,3.50
2023-03-25T04:10:15.077Z,2.93
2023-03-25T04:12:43.893Z,3.07
2023-03-25T04:15:14.502Z,2.67
2023-03-25T04:18:01.860Z,2.83
2023-03-25T04:20:45.032Z,2.43
2023-03-25T04:23:16.455Z,2.80
2023-03-25T04:25:43.761Z,3.00
2023-03-25T04:28:13.745Z,3.17
2023-03-25T04:30:40.853Z,2.40
2023-03-25T04:33:07.406Z,3.00
2023-03-25T04:35:34.175Z,3.10
2023-03-25T04:38:01.846Z,3.30
2023-03-25T04:40:28.448Z,3.50
2023-03-25T04:42:56.905Z,3.57
2023-03-25T04:45:25.457Z,4.40
2023-03-25T04:47:54.324Z,3.60
2023-03-25T04:50:21.007Z,3.53
2023-03-25T04:52:48.187Z,3.57
2023-03-25T04:55:19.555Z,3.50
2023-03-25T04:57:47.085Z,4.03
2023-03-25T05:00:14.918Z,4.00
2023-03-25T05:02:46.191Z,4.23
2023-03-25T05:05:18.803Z,4.40
2023-03-25T05:07:47.192Z,4.50
2023-03-25T05:10:14.172Z,4.40
2023-03-25T05:12:40.820Z,4.67
2023-03-25T05:15:08.141Z,4.60
2023-03-25T05:17:34.706Z,5.23
2023-03-25T05:20:01.219Z,4.80
2023-03-25T05:22:28.061Z,3.97
2023-03-25T05:24:56.385Z,4.20
2023-03-25T05:27:23.108Z,4.83
2023-03-25T05:29:49.738Z,4.33
2023-03-25T05:32:18.935Z,4.43
2023-03-25T05:34:48.412Z,4.40
2023-03-25T05:37:15.099Z,4.33
2023-03-25T05:39:42.358Z,3.87
2023-03-25T05:42:10.842Z,4.07
2023-03-25T05:44:38.841Z,3.93
2023-03-25T05:47:06.227Z,3.93
2023-03-25T05:49:32.745Z,4.00
2023-03-25T05:52:00.040Z,3.93
2023-03-25T05:54:26.734Z,3.90
2023-03-25T05:56:53.298Z,3.67
2023-03-25T05:59:20.510Z,3.80
2023-03-25T06:01:47.578Z,3.73
2023-03-25T06:04:16.921Z,2.90
2023-03-25T06:06:43.570Z,3.20
2023-03-25T06:09:10.361Z,3.50
2023-03-25T06:11:39.763Z,3.63
2023-03-25T06:14:06.847Z,3.57
2023-03-25T06:16:33.944Z,3.60
2023-03-25T06:19:00.735Z,4.00
2023-03-25T06:21:28.041Z,4.30
2023-03-25T06:23:54.831Z,4.20
2023-03-25T06:26:22.265Z,4.03
2023-03-25T06:28:49.142Z,4.50
2023-03-25T06:31:16.989Z,4.77
2023-03-25T06:33:44.361Z,4.33
2023-03-25T06:36:11.987Z,4.60
2023-03-25T06:38:39.398Z,4.53
2023-03-25T06:41:07.288Z,5.10
2023-03-25T06:43:34.510Z,5.33
2023-03-25T06:46:01.203Z,4.73
2023-03-25T06:48:27.865Z,4.83
2023-03-25T06:50:54.515Z,4.60
2023-03-25T06:53:21.309Z,4.80
2023-03-25T06:55:48.228Z,4.97
2023-03-25T06:58:14.821Z,4.50
2023-03-25T07:00:41.428Z,4.90
2023-03-25T07:03:08.058Z,4.23
2023-03-25T07:05:34.779Z,4.20
2023-03-25T07:08:01.414Z,3.57
2023-03-25T07:10:27.905Z,4.07
2023-03-25T07:12:54.416Z,3.77
2023-03-25T07:15:21.144Z,4.10
2023-03-25T07:17:49.480Z,4.10
2023-03-25T07:20:17.100Z,4.40
2023-03-25T07:22:43.973Z,4.37
2023-03-25T07:25:10.655Z,4.97
2023-03-25T07:27:37.682Z,5.03
2023-03-25T07:30:04.885Z,4.87
2023-03-25T07:32:31.402Z,5.30
2023-03-25T07:34:57.979Z,5.13
2023-03-25T07:37:24.540Z,4.70
2023-03-25T07:39:51.322Z,4.83
2023-03-25T07:42:17.937Z,5.40
2023-03-25T07:44:44.472Z,5.00
2023-03-25T07:47:11.027Z,5.07
2023-03-25T07:49:40.892Z,5.40
2023-03-25T07:52:07.848Z,5.07
2023-03-25T07:54:34.446Z,4.03
2023-03-25T07:57:00.981Z,5.07
2023-03-25T07:59:29.302Z,4.43
2023-03-25T08:01:56.200Z,4.50
2023-03-25T08:04:22.751Z,3.70
2023-03-25T08:06:49.279Z,4.30
2023-03-25T08:09:15.860Z,3.57
2023-03-25T08:11:42.485Z,3.33
2023-03-25T08:14:09.423Z,3.17
2023-03-25T08:16:36.002Z,3.13
2023-03-25T08:19:02.579Z,3.17
2023-03-25T08:21:30.091Z,3.20
2023-03-25T08:24:02.412Z,3.10
2023-03-25T08:26:29.652Z,4.03
2023-03-25T08:28:57.954Z,3.93
2023-03-25T08:31:24.978Z,3.90
2023-03-25T08:33:51.709Z,3.97
2023-03-25T08:36:23.385Z,4.47
2023-03-25T08:38:50.661Z,4.10
2023-03-25T08:41:17.649Z,3.83
2023-03-25T08:43:45.232Z,4.53
2023-03-25T08:46:12.153Z,4.00
2023-03-25T08:48:38.726Z,3.70
2023-03-25T08:51:06.231Z,4.00
2023-03-25T08:53:32.969Z,3.37
2023-03-25T08:55:59.656Z,4.23
2023-03-25T08:58:26.452Z,4.00
2023-03-25T09:00:54.509Z,3.93
2023-03-25T09:03:21.891Z,4.20
2023-03-25T09:05:49.017Z,3.97
2023-03-25T09:08:15.915Z,3.93
2023-03-25T09:10:42.402Z,3.83
2023-03-25T09:13:08.965Z,4.07
2023-03-25T09:15:35.459Z,4.00
2023-03-25T09:18:02.066Z,4.57
2023-03-25T09:20:28.709Z,4.10
2023-03-25T09:22:55.332Z,4.00
2023-03-25T09:25:22.001Z,3.87
2023-03-25T09:27:48.647Z,4.43
2023-03-25T09:30:15.802Z,3.90
2023-03-25T09:32:42.403Z,4.10
2023-03-25T09:35:09.119Z,4.63
2023-03-25T09:37:36.033Z,3.77
2023-03-25T09:40:02.669Z,3.60
2023-03-25T09:42:35.608Z,3.13
2023-03-25T09:45:11.913Z,3.33
2023-03-25T09:47:41.327Z,3.47
2023-03-25T09:50:12.626Z,3.10
2023-03-25T09:52:46.025Z,2.87
2023-03-25T09:55:16.043Z,3.40
2023-03-25T09:57:50.903Z,3.43
2023-03-25T10:00:23.665Z,3.13
2023-03-25T10:03:09.508Z,2.80
2023-03-25T10:05:36.289Z,3.00
2023-03-25T10:08:03.020Z,2.73
2023-03-25T10:10:39.073Z,3.10
2023-03-25T10:13:05.813Z,2.40
2023-03-25T10:15:39.987Z,2.60
2023-03-25T10:18:34.130Z,2.47
2023-03-25T10:21:08.397Z,2.80
2023-03-25T10:23:38.076Z,3.10
2023-03-25T10:26:16.376Z,2.80
2023-03-25T10:28:48.055Z,2.83
2023-03-25T10:31:16.934Z,2.87
2023-03-25T10:33:53.096Z,3.00
2023-03-25T10:36:22.879Z,3.27
2023-03-25T10:38:54.378Z,2.60
2023-03-25T10:41:20.954Z,2.60
2023-03-25T10:43:47.481Z,3.60
2023-03-25T10:46:14.057Z,2.77
2023-03-25T10:48:40.809Z,2.60
2023-03-25T10:51:09.757Z,2.87
2023-03-25T10:53:36.908Z,3.20
2023-03-25T10:56:04.829Z,2.70
2023-03-25T10:58:32.431Z,2.90
2023-03-25T11:01:01.648Z,3.27
2023-03-25T11:03:33.847Z,3.27
2023-03-25T11:06:00.461Z,3.87
2023-03-25T11:08:27.320Z,3.43
2023-03-25T11:10:57.977Z,4.00
2023-03-25T11:13:25.754Z,3.63
2023-03-25T11:15:53.812Z,3.67
2023-03-25T11:18:25.081Z,4.10
2023-03-25T11:20:53.611Z,4.20
2023-03-25T11:23:28.559Z,4.00
2023-03-25T11:25:55.795Z,4.60
2023-03-25T11:28:33.074Z,4.37
2023-03-25T11:31:11.513Z,4.27
2023-03-25T11:33:38.773Z,3.67
2023-03-25T11:36:11.752Z,4.23
2023-03-25T11:38:39.706Z,3.87
2023-03-25T11:41:07.376Z,4.20
2023-03-25T11:43:36.939Z,3.63
2023-03-25T11:46:14.519Z,3.70
2023-03-25T11:48:42.592Z,3.90
2023-03-25T11:51:23.279Z,3.30
2023-03-25T11:54:00.528Z,3.20
2023-03-25T11:56:34.863Z,2.90
2023-03-25T11:59:02.232Z,2.70
2023-03-25T12:01:36.941Z,2.07
2023-03-25T12:04:22.797Z,1.67
2023-03-25T12:06:57.410Z,1.73
2023-03-25T12:09:25.226Z,1.37
2023-03-25T12:11:57.861Z,1.30
2023-03-25T12:14:30.952Z,1.40
2023-03-25T12:17:24.164Z,1.70
2023-03-25T12:20:00.269Z,1.83
2023-03-25T12:22:42.528Z,1.83
2023-03-25T12:25:18.334Z,2.53
2023-03-25T12:27:53.433Z,2.03
2023-03-25T12:30:20.950Z,2.57
2023-03-25T12:33:10.256Z,2.20
2023-03-25T12:35:47.743Z,2.83
2023-03-25T12:38:34.346Z,2.17
2023-03-25T12:41:13.746Z,2.20
2023-03-25T12:43:40.442Z,2.47
2023-03-25T12:46:14.493Z,2.60
2023-03-25T12:48:45.300Z,2.57
2023-03-25T12:51:34.415Z,2.73
2023-03-25T12:54:08.909Z,1.90
2023-03-25T12:56:48.244Z,1.70
2023-03-25T12:59:27.074Z,2.03
2023-03-25T13:01:56.896Z,2.00
2023-03-25T13:04:32.756Z,1.70
2023-03-25T13:07:20.710Z,1.70
2023-03-25T13:10:12.822Z,1.53
2023-03-25T13:12:42.868Z,1.70
2023-03-25T13:15:30.044Z,1.70
2023-03-25T13:18:02.606Z,1.87
2023-03-25T13:20:32.208Z,2.20
2023-03-25T13:23:02.194Z,1.63
2023-03-25T13:25:37.188Z,1.97
2023-03-25T13:28:07.169Z,2.03
2023-03-25T13:30:41.839Z,1.83
2023-03-25T13:33:13.881Z,1.57
2023-03-25T13:35:44.574Z,1.27
2023-03-25T13:38:30.156Z,1.47
2023-03-25T13:41:15.683Z,1.63
2023-03-25T13:44:05.808Z,1.47
2023-03-25T13:46:41.320Z,1.53
2023-03-25T13:49:08.084Z,1.63
2023-03-25T13:51:34.783Z,1.53
2023-03-25T13:54:21.800Z,1.90
2023-03-25T13:56:57.392Z,1.60
2023-03-25T13:59:36.242Z,1.80
2023-03-25T14:02:02.721Z,1.53
2023-03-25T14:04:44.623Z,1.87
2023-03-25T14:07:17.228Z,1.97
2023-03-25T14:09:43.691Z,1.77
2023-03-25T14:12:15.992Z,2.00
2023-03-25T14:14:48.739Z,2.03
2023-03-25T14:17:16.293Z,2.00
2023-03-25T14:19:44.769Z,2.10
2023-03-25T14:22:16.715Z,2.13
2023-03-25T14:24:44.994Z,2.23
2023-03-25T14:27:18.100Z,1.90
2023-03-25T14:29:48.082Z,2.10
2023-03-25T14:32:17.653Z,2.03
2023-03-25T14:34:50.456Z,2.33
2023-03-25T14:37:27.150Z,2.10
2023-03-25T14:39:55.260Z,2.47
2023-03-25T14:42:23.898Z,2.37
2023-03-25T14:44:54.719Z,2.50
2023-03-25T14:47:29.888Z,2.40
2023-03-25T14:50:05.016Z,2.07
2023-03-25T14:52:45.338Z,1.80
2023-03-25T14:55:15.323Z,2.00
2023-03-25T14:57:42.722Z,1.90
2023-03-25T15:00:14.076Z,2.27
2023-03-25T15:02:42.157Z,2.43
2023-03-25T15:05:15.766Z,2.10
2023-03-25T15:07:45.649Z,2.10
2023-03-25T15:10:20.771Z,2.00
2023-03-25T15:12:51.229Z,2.03
2023-03-25T15:15:29.374Z,1.80
2023-03-25T15:17:57.910Z,2.13
2023-03-25T15:20:25.999Z,2.10
2023-03-25T15:23:11.460Z,1.97
2023-03-25T15:25:38.147Z,2.40
2023-03-25T15:28:16.591Z,2.47
2023-03-25T15:30:46.397Z,2.43
2023-03-25T15:33:31.672Z,3.30
2023-03-25T15:36:02.060Z,2.30
2023-03-25T15:38:44.985Z,2.03
2023-03-25T15:41:30.917Z,2.00
2023-03-25T15:44:18.485Z,1.90
2023-03-25T15:46:44.953Z,2.67
2023-03-25T15:49:14.577Z,2.23
2023-03-25T15:51:41.241Z,2.23
2023-03-25T15:54:26.538Z,3.00
2023-03-25T15:56:57.435Z,2.60
2023-03-25T15:59:30.246Z,2.33
2023-03-25T16:01:57.852Z,2.27
2023-03-25T16:04:32.739Z,1.93
2023-03-25T16:06:59.805Z,2.10
2023-03-25T16:09:28.872Z,1.80
2023-03-25T16:12:00.121Z,1.80
2023-03-25T16:14:29.621Z,1.90
2023-03-25T16:16:57.087Z,1.73
2023-03-25T16:19:25.723Z,1.93
2023-03-25T16:21:53.008Z,1.70
2023-03-25T16:24:21.088Z,1.93
2023-03-25T16:26:48.713Z,1.83
2023-03-25T16:29:20.468Z,1.97
2023-03-25T16:32:13.227Z,1.80
2023-03-25T16:34:40.944Z,2.00
2023-03-25T16:37:07.826Z,2.53
2023-03-25T16:39:35.886Z,2.13
2023-03-25T16:42:11.450Z,1.77
2023-03-25T16:44:38.061Z,1.90
2023-03-25T16:47:05.326Z,2.03
2023-03-25T16:49:34.278Z,2.30
2023-03-25T16:52:02.241Z,1.83
2023-03-25T16:54:31.731Z,1.90
2023-03-25T16:56:59.534Z,1.83
2023-03-25T16:59:29.045Z,2.23
2023-03-25T17:01:57.560Z,2.10
2023-03-25T17:04:30.008Z,2.30
2023-03-25T17:06:59.419Z,2.07
2023-03-25T17:09:34.494Z,2.33
2023-03-25T17:12:02.184Z,2.40
2023-03-25T17:14:31.318Z,2.20
2023-03-25T17:16:58.362Z,2.20
2023-03-25T17:19:26.586Z,2.30
2023-03-25T17:22:18.833Z,2.20
2023-03-25T17:24:55.873Z,2.07
2023-03-25T17:27:36.373Z,2.10
2023-03-25T17:30:17.550Z,1.63
2023-03-25T17:32:44.768Z,1.73
2023-03-25T17:35:20.326Z,1.70
2023-03-25T17:37:47.685Z,1.67
2023-03-25T17:40:20.816Z,1.40
2023-03-25T17:42:47.892Z,1.23
2023-03-25T17:45:15.929Z,1.77
2023-03-25T17:47:42.623Z,1.50
2023-03-25T17:50:14.252Z,1.30
2023-03-25T17:52:41.248Z,1.47
2023-03-25T17:55:08.153Z,1.10
2023-03-25T17:57:36.387Z,1.23
2023-03-25T18:00:08.412Z,1.30
2023-03-25T18:02:34.947Z,1.23
2023-03-25T18:05:01.534Z,1.30
2023-03-25T18:07:28.139Z,1.43
2023-03-25T18:09:54.680Z,1.40
2023-03-25T18:12:21.189Z,1.40
2023-03-25T18:14:49.874Z,1.40
2023-03-25T18:17:16.460Z,1.17
2023-03-25T18:19:43.029Z,1.10
2023-03-25T18:22:19.762Z,1.50
2023-03-25T18:24:47.039Z,1.73
2023-03-25T18:27:14.647Z,1.33
2023-03-25T18:29:41.417Z,1.30
2023-03-25T18:32:08.103Z,1.50
2023-03-25T18:34:34.802Z,1.47
2023-03-25T18:37:01.385Z,1.80
2023-03-25T18:39:28.201Z,1.87
2023-03-25T18:41:54.745Z,1.60
2023-03-25T18:44:21.450Z,1.73
2023-03-25T18:46:48.315Z,1.50
2023-03-25T18:49:16.877Z,1.83
2023-03-25T18:51:43.745Z,1.73
2023-03-25T18:54:10.919Z,1.43
2023-03-25T18:56:38.068Z,1.80
2023-03-25T18:59:04.635Z,1.80
2023-03-25T19:01:31.258Z,1.70
2023-03-25T19:04:02.754Z,1.80
2023-03-25T19:06:29.918Z,1.60
2023-03-25T19:08:57.450Z,2.30
2023-03-25T19:11:24.606Z,1.80
2023-03-25T19:13:51.808Z,1.90
2023-03-25T19:16:18.909Z,2.00
2023-03-25T19:18:47.518Z,2.00
2023-03-25T19:21:15.208Z,1.90
2023-03-25T19:23:43.064Z,1.90
2023-03-25T19:26:09.652Z,2.33
2023-03-25T19:28:36.332Z,2.07
2023-03-25T19:31:03.085Z,2.00
2023-03-25T19:33:31.491Z,1.93
2023-03-25T19:36:01.868Z,2.00
2023-03-25T19:38:29.770Z,2.33
2023-03-25T19:41:04.709Z,2.10
2023-03-25T19:43:31.465Z,2.27
2023-03-25T19:45:58.746Z,1.90
2023-03-25T19:48:25.612Z,2.30
2023-03-25T19:50:53.247Z,2.77
2023-03-25T19:53:19.974Z,2.43
2023-03-25T19:55:47.044Z,2.53
2023-03-25T19:58:14.336Z,2.10
2023-03-25T20:00:42.143Z,2.10
2023-03-25T20:03:08.864Z,2.40
2023-03-25T20:05:36.514Z,2.27
2023-03-25T20:08:04.290Z,2.27
2023-03-25T20:10:32.864Z,2.40
2023-03-25T20:13:00.259Z,3.33
2023-03-25T20:15:27.245Z,3.17
2023-03-25T20:17:54.319Z,2.70
2023-03-25T20:20:21.876Z,2.40
2023-03-25T20:22:48.816Z,2.13
2023-03-25T20:25:15.547Z,2.20
2023-03-25T20:27:42.726Z,1.97
2023-03-25T20:30:10.764Z,1.70
2023-03-25T20:32:40.929Z,2.30
2023-03-25T20:35:10.841Z,2.00
2023-03-25T20:37:38.734Z,2.27
2023-03-25T20:40:07.313Z,2.20
2023-03-25T20:42:33.901Z,1.70
2023-03-25T20:45:00.501Z,2.07
2023-03-25T20:47:28.424Z,2.00
2023-03-25T20:49:55.003Z,1.93
2023-03-25T20:52:22.423Z,2.30
2023-03-25T20:54:49.590Z,2.20
2023-03-25T20:57:16.531Z,2.00
2023-03-25T20:59:43.179Z,2.13
2023-03-25T21:02:10.530Z,2.20
2023-03-25T21:04:38.279Z,2.00
2023-03-25T21:07:05.064Z,2.37
2023-03-25T21:09:31.898Z,2.00
2023-03-25T21:11:58.451Z,2.00
2023-03-25T21:14:24.998Z,2.10
2023-03-25T21:16:51.709Z,2.23
2023-03-25T21:19:20.250Z,1.73
2023-03-25T21:21:47.074Z,1.90
2023-03-25T21:24:14.796Z,2.17
2023-03-25T21:26:41.352Z,2.00
2023-03-25T21:29:07.997Z,1.80
2023-03-25T21:31:34.541Z,2.00
2023-03-25T21:34:01.051Z,2.10
2023-03-25T21:36:28.563Z,1.77
2023-03-25T21:38:56.703Z,1.93
2023-03-25T21:41:23.291Z,1.90
2023-03-25T21:43:50.057Z,2.30
2023-03-25T21:46:16.719Z,2.10
2023-03-25T21:48:48.708Z,1.90
2023-03-25T21:51:15.549Z,1.90
2023-03-25T21:53:45.304Z,1.80
2023-03-25T21:56:24.748Z,2.00
2023-03-25T21:58:51.833Z,2.20
2023-03-25T22:01:23.256Z,1.77
2023-03-25T22:03:54.208Z,2.37
2023-03-25T22:06:22.155Z,2.20
2023-03-25T22:08:49.219Z,1.93
2023-03-25T22:11:20.531Z,2.10
2023-03-25T22:13:47.528Z,1.93
2023-03-25T22:16:15.059Z,2.10
2023-03-25T22:18:41.812Z,2.20
2023-03-25T22:21:16.326Z,2.23
2023-03-25T22:23:45.014Z,2.30
2023-03-25T22:26:12.807Z,2.30
2023-03-25T22:28:39.840Z,2.37
2023-03-25T22:31:13.687Z,2.80
2023-03-25T22:33:40.834Z,2.33
2023-03-25T22:36:14.240Z,2.20
2023-03-25T22:38:41.948Z,2.63
2023-03-25T22:41:08.883Z,2.40
2023-03-25T22:43:35.965Z,2.63
2023-03-25T22:46:03.715Z,2.63
2023-03-25T22:48:31.055Z,2.80
2023-03-25T22:50:57.903Z,2.90
2023-03-25T22:53:25.151Z,2.60
2023-03-25T22:55:55.008Z,3.33
2023-03-25T22:58:23.145Z,4.00
2023-03-25T23:00:50.309Z,3.80
2023-03-25T23:03:17.082Z,3.57
2023-03-25T23:05:55.835Z,3.63
2023-03-25T23:08:25.872Z,4.07
2023-03-25T23:10:53.162Z,3.90
2023-03-25T23:13:19.902Z,3.93
2023-03-25T23:15:47.086Z,4.20
2023-03-25T23:18:14.367Z,3.93
2023-03-25T23:20:41.227Z,3.67
2023-03-25T23:23:07.741Z,3.53
2023-03-25T23:25:34.283Z,3.80
2023-03-25T23:28:00.810Z,3.70
2023-03-25T23:30:27.347Z,3.60
2023-03-25T23:32:55.204Z,3.70
2023-03-25T23:35:22.000Z,4.43
2023-03-25T23:37:51.629Z,4.33
2023-03-25T23:40:18.258Z,3.80
2023-03-25T23:42:44.872Z,4.00
2023-03-25T23:45:11.990Z,3.53
2023-03-25T23:47:38.918Z,4.57
2023-03-25T23:50:07.121Z,4.30
2023-03-25T23:52:34.403Z,4.03
2023-03-25T23:55:01.429Z,4.70
2023-03-25T23:57:29.103Z,5.00
2023-03-25T23:59:55.844Z,4.57
